createdAt,value
2023-01-20T00:01:12.164Z,2.83
2023-01-20T00:03:40.317Z,2.27
2023-01-20T00:06:08.923Z,2.20
2023-01-20T00:08:37.256Z,2.47
2023-01-20T00:11:07.002Z,2.43
2023-01-20T00:13:37.141Z,2.40
2023-01-20T00:16:05.934Z,2.47
2023-01-20T00:18:35.101Z,2.70
2023-01-20T00:21:05.356Z,2.67
2023-01-20T00:23:34.044Z,2.50
2023-01-20T00:26:06.371Z,2.40
2023-01-20T00:28:36.398Z,2.23
2023-01-20T00:31:15.756Z,3.00
2023-01-20T00:33:44.837Z,2.33
2023-01-20T00:36:13.861Z,2.27
2023-01-20T00:38:41.918Z,2.07
2023-01-20T00:41:10.230Z,2.50
2023-01-20T00:43:40.158Z,2.90
2023-01-20T00:46:08.695Z,2.17
2023-01-20T00:48:37.109Z,2.93
2023-01-20T00:51:06.232Z,2.40
2023-01-20T00:53:34.518Z,2.20
2023-01-20T00:56:02.584Z,2.53
2023-01-20T00:58:30.591Z,2.33
2023-01-20T01:01:00.261Z,2.40
2023-01-20T01:03:28.721Z,2.60
2023-01-20T01:06:06.907Z,2.67
2023-01-20T01:08:35.508Z,2.40
2023-01-20T01:11:03.602Z,2.37
2023-01-20T01:13:32.300Z,3.00
2023-01-20T01:16:02.016Z,2.30
2023-01-20T01:18:45.149Z,2.00
2023-01-20T01:21:15.748Z,2.30
2023-01-20T01:23:44.523Z,2.43
2023-01-20T01:26:12.541Z,2.40
2023-01-20T01:28:40.810Z,2.30
2023-01-20T01:31:11.138Z,2.23
2023-01-20T01:33:39.459Z,2.50
2023-01-20T01:36:09.283Z,2.40
2023-01-20T01:38:37.276Z,2.20
2023-01-20T01:41:05.370Z,2.43
2023-01-20T01:43:35.116Z,1.97
2023-01-20T01:46:03.430Z,2.37
2023-01-20T01:48:36.002Z,2.20
2023-01-20T01:51:07.260Z,2.40
2023-01-20T01:53:41.309Z,2.20
2023-01-20T01:56:10.596Z,2.40
2023-01-20T01:58:40.895Z,2.50
2023-01-20T02:01:09.285Z,2.00
2023-01-20T02:03:45.223Z,2.80
2023-01-20T02:06:14.544Z,2.63
2023-01-20T02:08:44.028Z,2.80
2023-01-20T02:11:12.026Z,2.40
2023-01-20T02:13:40.437Z,2.47
2023-01-20T02:16:18.904Z,2.60
2023-01-20T02:19:01.898Z,3.17
2023-01-20T02:22:06.930Z,3.00
2023-01-20T02:25:04.610Z,2.70
2023-01-20T02:27:53.329Z,2.93
2023-01-20T02:30:47.713Z,2.70
2023-01-20T02:33:22.037Z,2.90
2023-01-20T02:35:54.341Z,2.87
2023-01-20T02:38:29.855Z,3.40
2023-01-20T02:41:07.719Z,2.93
2023-01-20T02:43:43.500Z,3.17
2023-01-20T02:46:16.911Z,3.37
2023-01-20T02:48:52.442Z,3.70
2023-01-20T02:51:26.590Z,3.53
2023-01-20T02:53:57.398Z,3.80
2023-01-20T02:56:30.125Z,3.70
2023-01-20T02:59:01.348Z,3.73
2023-01-20T03:01:33.368Z,4.00
2023-01-20T03:04:04.884Z,3.73
2023-01-20T03:06:37.348Z,4.17
2023-01-20T03:09:09.901Z,4.23
2023-01-20T03:11:42.299Z,3.90
2023-01-20T03:14:13.483Z,4.17
2023-01-20T03:16:42.370Z,3.77
2023-01-20T03:19:12.548Z,3.97
2023-01-20T03:21:40.616Z,3.87
2023-01-20T03:24:09.331Z,4.00
2023-01-20T03:26:37.741Z,4.27
2023-01-20T03:29:08.158Z,4.60
2023-01-20T03:31:39.351Z,4.47
2023-01-20T03:34:12.716Z,4.33
2023-01-20T03:36:43.812Z,4.27
2023-01-20T03:39:12.103Z,4.73
2023-01-20T03:41:52.043Z,5.10
2023-01-20T03:44:24.974Z,4.77
2023-01-20T03:46:58.483Z,4.60
2023-01-20T03:49:31.256Z,5.10
2023-01-20T03:52:04.488Z,5.57
2023-01-20T03:54:38.315Z,4.73
2023-01-20T03:57:12.243Z,5.67
2023-01-20T03:59:43.172Z,5.80
2023-01-20T04:02:12.891Z,6.10
2023-01-20T04:04:44.433Z,6.07
2023-01-20T04:07:19.296Z,5.57
2023-01-20T04:09:51.664Z,6.13
2023-01-20T04:12:20.104Z,6.47
2023-01-20T04:14:48.055Z,7.20
2023-01-20T04:17:16.720Z,7.37
2023-01-20T04:19:44.736Z,7.80
2023-01-20T04:22:21.262Z,7.20
2023-01-20T04:24:53.293Z,8.07
2023-01-20T04:27:21.261Z,8.47
2023-01-20T04:29:49.247Z,10.00
2023-01-20T04:32:17.445Z,10.57
2023-01-20T04:34:45.433Z,10.80
2023-01-20T04:37:14.796Z,11.93
2023-01-20T04:39:42.807Z,12.70
2023-01-20T04:42:11.045Z,12.30
2023-01-20T04:44:39.019Z,13.43
2023-01-20T04:47:07.018Z,14.33
2023-01-20T04:49:35.558Z,14.20
2023-01-20T04:52:03.513Z,15.93
2023-01-20T04:54:33.083Z,16.27
2023-01-20T04:57:01.031Z,18.40
2023-01-20T04:59:28.989Z,17.90
2023-01-20T05:01:57.086Z,18.17
2023-01-20T05:04:25.120Z,19.63
2023-01-20T05:06:53.112Z,20.10
2023-01-20T05:09:21.177Z,19.70
2023-01-20T05:11:50.514Z,21.50
2023-01-20T05:14:18.516Z,21.60
2023-01-20T05:16:47.080Z,21.07
2023-01-20T05:19:15.177Z,23.43
2023-01-20T05:21:43.584Z,22.67
2023-01-20T05:24:11.675Z,24.23
2023-01-20T05:26:39.629Z,23.37
2023-01-20T05:29:09.228Z,23.00
2023-01-20T05:31:38.698Z,24.27
2023-01-20T05:34:06.750Z,23.97
2023-01-20T05:36:34.696Z,24.17
2023-01-20T05:39:02.723Z,22.77
2023-01-20T05:41:30.677Z,22.27
2023-01-20T05:43:58.681Z,23.67
2023-01-20T05:46:28.028Z,25.10
2023-01-20T05:48:55.990Z,23.60
2023-01-20T05:51:24.507Z,23.07
2023-01-20T05:53:52.455Z,22.80
2023-01-20T05:56:20.427Z,23.57
2023-01-20T05:58:48.363Z,24.63
2023-01-20T06:01:16.489Z,25.30
2023-01-20T06:03:46.027Z,23.90
2023-01-20T06:06:15.777Z,25.83
2023-01-20T06:08:43.897Z,24.87
2023-01-20T06:11:13.652Z,25.00
2023-01-20T06:13:41.737Z,24.83
2023-01-20T06:16:09.778Z,25.53
2023-01-20T06:18:37.773Z,25.40
2023-01-20T06:21:07.522Z,25.80
2023-01-20T06:23:35.654Z,25.53
2023-01-20T06:26:05.669Z,25.27
2023-01-20T06:28:34.128Z,24.03
2023-01-20T06:31:03.361Z,25.77
2023-01-20T06:33:31.588Z,26.30
2023-01-20T06:36:00.178Z,24.90
2023-01-20T06:38:31.069Z,24.83
2023-01-20T06:41:00.053Z,25.80
2023-01-20T06:43:29.720Z,25.37
2023-01-20T06:46:01.177Z,26.07
2023-01-20T06:48:29.996Z,25.30
2023-01-20T06:51:02.015Z,25.20
2023-01-20T06:53:31.533Z,24.37
2023-01-20T06:56:01.456Z,25.03
2023-01-20T06:58:31.073Z,22.80
2023-01-20T07:01:04.746Z,23.00
2023-01-20T07:03:32.833Z,21.87
2023-01-20T07:06:02.331Z,22.53
2023-01-20T07:08:32.139Z,22.93
2023-01-20T07:11:00.160Z,23.50
2023-01-20T07:13:28.100Z,22.33
2023-01-20T07:15:56.242Z,23.30
2023-01-20T07:18:24.563Z,24.23
2023-01-20T07:20:55.491Z,24.07
2023-01-20T07:23:23.580Z,23.87
2023-01-20T07:25:59.849Z,24.37
2023-01-20T07:28:28.289Z,23.10
2023-01-20T07:30:56.288Z,23.47
2023-01-20T07:33:24.371Z,23.87
2023-01-20T07:35:54.145Z,24.97
2023-01-20T07:38:22.167Z,23.27
2023-01-20T07:40:50.192Z,22.70
2023-01-20T07:43:19.520Z,23.60
2023-01-20T07:45:47.512Z,23.37
2023-01-20T07:48:15.554Z,24.53
2023-01-20T07:50:43.548Z,26.33
2023-01-20T07:53:11.516Z,27.00
2023-01-20T07:55:39.503Z,25.97
2023-01-20T07:58:07.463Z,26.43
2023-01-20T08:00:36.812Z,26.47
2023-01-20T08:03:04.849Z,24.80
2023-01-20T08:05:33.671Z,26.00
2023-01-20T08:08:01.675Z,26.10
2023-01-20T08:10:29.702Z,24.73
2023-01-20T08:12:57.648Z,25.70
2023-01-20T08:15:25.781Z,25.53
2023-01-20T08:17:56.714Z,24.37
2023-01-20T08:20:24.729Z,23.00
2023-01-20T08:22:52.827Z,24.57
2023-01-20T08:25:20.928Z,25.57
2023-01-20T08:27:50.380Z,25.20
2023-01-20T08:30:19.110Z,24.93
2023-01-20T08:32:47.154Z,24.63
2023-01-20T08:35:17.701Z,24.50
2023-01-20T08:37:45.786Z,25.23
2023-01-20T08:40:14.204Z,25.13
2023-01-20T08:42:42.176Z,24.77
2023-01-20T08:45:10.997Z,23.57
2023-01-20T08:47:46.936Z,22.87
2023-01-20T08:50:17.381Z,21.03
2023-01-20T08:52:45.539Z,20.90
2023-01-20T08:55:14.290Z,21.40
2023-01-20T08:57:42.549Z,21.20
2023-01-20T09:00:13.825Z,20.13
2023-01-20T09:02:41.998Z,22.83
2023-01-20T09:05:10.988Z,21.80
2023-01-20T09:07:40.364Z,22.10
2023-01-20T09:10:09.650Z,20.70
2023-01-20T09:12:37.789Z,21.63
2023-01-20T09:15:07.639Z,23.60
2023-01-20T09:17:36.199Z,22.60
2023-01-20T09:20:04.260Z,23.67
2023-01-20T09:22:32.472Z,21.90
2023-01-20T09:25:01.959Z,22.37
2023-01-20T09:27:30.000Z,22.23
2023-01-20T09:29:58.033Z,22.60
2023-01-20T09:32:26.057Z,21.53
2023-01-20T09:34:54.160Z,21.70
2023-01-20T09:37:39.859Z,22.97
2023-01-20T09:40:32.388Z,22.00
2023-01-20T09:43:32.453Z,20.57
2023-01-20T09:46:09.539Z,20.17
2023-01-20T09:49:03.804Z,20.47
2023-01-20T09:51:56.802Z,20.37
2023-01-20T09:54:27.582Z,20.40
2023-01-20T09:57:01.559Z,21.30
2023-01-20T09:59:37.197Z,19.97
2023-01-20T10:02:13.357Z,22.90
2023-01-20T10:04:47.037Z,19.77
2023-01-20T10:07:22.605Z,20.50
2023-01-20T10:09:56.330Z,20.13
2023-01-20T10:12:30.819Z,20.60
2023-01-20T10:15:07.308Z,20.90
2023-01-20T10:17:41.051Z,20.90
2023-01-20T10:20:13.966Z,20.33
2023-01-20T10:22:47.046Z,19.73
2023-01-20T10:25:18.536Z,21.10
2023-01-20T10:27:54.066Z,21.33
2023-01-20T10:30:26.248Z,21.17
2023-01-20T10:32:59.777Z,22.03
2023-01-20T10:35:29.594Z,20.67
2023-01-20T10:37:58.907Z,21.07
2023-01-20T10:40:35.320Z,21.33
2023-01-20T10:43:12.382Z,22.40
2023-01-20T10:45:55.625Z,22.20
2023-01-20T10:48:42.583Z,20.77
2023-01-20T10:51:17.071Z,21.53
2023-01-20T10:53:52.886Z,21.83
2023-01-20T10:56:42.959Z,20.23
2023-01-20T10:59:17.672Z,21.73
2023-01-20T11:01:56.532Z,20.67
2023-01-20T11:04:36.093Z,21.43
2023-01-20T11:07:08.392Z,20.90
2023-01-20T11:09:38.591Z,22.27
2023-01-20T11:12:15.212Z,20.47
2023-01-20T11:14:44.606Z,22.40
2023-01-20T11:17:16.277Z,23.20
2023-01-20T11:19:50.267Z,23.13
2023-01-20T11:22:24.909Z,23.70
2023-01-20T11:24:56.179Z,21.67
2023-01-20T11:27:27.812Z,20.80
2023-01-20T11:30:02.005Z,21.80
2023-01-20T11:32:33.242Z,22.67
2023-01-20T11:35:02.550Z,22.00
2023-01-20T11:37:38.963Z,22.23
2023-01-20T11:40:22.748Z,21.73
2023-01-20T11:42:52.420Z,22.67
2023-01-20T11:45:34.632Z,22.93
2023-01-20T11:48:07.630Z,23.00
2023-01-20T11:50:41.097Z,24.00
2023-01-20T11:53:21.947Z,23.17
2023-01-20T11:55:53.753Z,21.60
2023-01-20T11:58:23.755Z,21.47
2023-01-20T12:01:00.907Z,22.23
2023-01-20T12:04:01.518Z,22.93
2023-01-20T12:06:31.943Z,24.73
2023-01-20T12:09:05.746Z,23.67
2023-01-20T12:11:37.674Z,23.30
2023-01-20T12:14:28.478Z,23.13
2023-01-20T12:17:14.430Z,24.57
2023-01-20T12:20:00.312Z,24.13
2023-01-20T12:22:33.912Z,24.40
2023-01-20T12:25:14.677Z,23.93
2023-01-20T12:27:47.796Z,24.30
2023-01-20T12:30:53.670Z,24.70
2023-01-20T12:33:25.681Z,23.77
2023-01-20T12:36:38.976Z,25.60
2023-01-20T12:39:45.655Z,25.03
2023-01-20T12:42:43.181Z,23.50
2023-01-20T12:45:21.847Z,23.13
2023-01-20T12:48:04.959Z,23.70
2023-01-20T12:50:52.048Z,22.83
2023-01-20T12:53:49.669Z,22.80
2023-01-20T12:56:31.418Z,22.33
2023-01-20T12:59:07.316Z,22.53
2023-01-20T13:01:47.279Z,23.57
2023-01-20T13:05:02.546Z,20.70
2023-01-20T13:07:57.520Z,23.03
2023-01-20T13:10:54.395Z,20.73
2023-01-20T13:13:56.025Z,21.60
2023-01-20T13:16:33.250Z,22.40
2023-01-20T13:19:08.964Z,20.20
2023-01-20T13:21:37.013Z,21.67
2023-01-20T13:24:07.367Z,22.10
2023-01-20T13:26:37.828Z,22.63
2023-01-20T13:29:05.907Z,21.83
2023-01-20T13:31:45.504Z,21.87
2023-01-20T13:34:35.186Z,20.97
2023-01-20T13:37:33.219Z,20.53
2023-01-20T13:40:02.957Z,19.70
2023-01-20T13:42:54.829Z,20.80
2023-01-20T13:45:25.749Z,21.03
2023-01-20T13:48:00.171Z,20.40
2023-01-20T13:50:31.514Z,20.30
2023-01-20T13:53:25.135Z,20.80
2023-01-20T13:55:56.518Z,20.57
2023-01-20T13:58:26.220Z,19.57
2023-01-20T14:00:56.287Z,20.23
2023-01-20T14:03:30.064Z,20.83
2023-01-20T14:06:01.198Z,20.57
2023-01-20T14:08:31.085Z,20.00
2023-01-20T14:11:11.440Z,19.93
2023-01-20T14:13:39.728Z,19.13
2023-01-20T14:16:18.657Z,19.03
2023-01-20T14:18:48.608Z,17.17
2023-01-20T14:21:21.101Z,17.50
2023-01-20T14:23:49.524Z,17.83
2023-01-20T14:26:24.469Z,16.63
2023-01-20T14:28:54.340Z,17.47
2023-01-20T14:31:32.018Z,18.23
2023-01-20T14:34:03.020Z,16.40
2023-01-20T14:36:34.063Z,18.00
2023-01-20T14:39:04.321Z,17.23
2023-01-20T14:41:47.675Z,15.83
2023-01-20T14:44:19.825Z,19.10
2023-01-20T14:46:50.297Z,18.93
2023-01-20T14:49:19.995Z,17.87
2023-01-20T14:51:49.735Z,16.37
2023-01-20T14:54:31.631Z,18.13
2023-01-20T14:57:27.688Z,16.73
2023-01-20T15:00:23.245Z,16.67
2023-01-20T15:03:09.901Z,15.67
2023-01-20T15:05:41.657Z,17.43
2023-01-20T15:08:25.470Z,17.80
2023-01-20T15:11:24.756Z,17.00
2023-01-20T15:14:11.132Z,17.03
2023-01-20T15:16:49.339Z,19.17
2023-01-20T15:19:31.230Z,17.20
2023-01-20T15:22:20.549Z,17.30
2023-01-20T15:24:50.523Z,18.17
2023-01-20T15:27:25.081Z,18.77
2023-01-20T15:30:17.060Z,18.47
2023-01-20T15:32:45.410Z,18.57
2023-01-20T15:35:15.373Z,18.40
2023-01-20T15:37:44.958Z,18.30
2023-01-20T15:40:17.916Z,18.17
2023-01-20T15:42:46.283Z,18.10
2023-01-20T15:45:16.694Z,18.17
2023-01-20T15:47:46.032Z,18.57
2023-01-20T15:50:17.153Z,19.17
2023-01-20T15:52:45.816Z,17.83
2023-01-20T15:55:15.112Z,18.03
2023-01-20T15:57:44.096Z,18.97
2023-01-20T16:00:20.496Z,30.30
2023-01-20T16:02:48.919Z,33.60
2023-01-20T16:05:17.854Z,26.33
2023-01-20T16:07:47.642Z,22.33
2023-01-20T16:10:17.871Z,21.00
2023-01-20T16:12:46.731Z,18.37
2023-01-20T16:15:16.304Z,17.63
2023-01-20T16:17:46.051Z,18.40
2023-01-20T16:20:26.083Z,23.47
2023-01-20T16:22:54.303Z,23.80
2023-01-20T16:25:22.792Z,23.17
2023-01-20T16:27:50.879Z,23.97
2023-01-20T16:30:20.963Z,23.23
2023-01-20T16:32:50.952Z,22.67
2023-01-20T16:35:23.512Z,21.80
2023-01-20T16:37:52.379Z,20.80
2023-01-20T16:40:22.004Z,20.27
2023-01-20T16:42:50.001Z,19.93
2023-01-20T16:45:25.571Z,20.47
2023-01-20T16:47:55.076Z,19.90
2023-01-20T16:50:23.468Z,20.17
2023-01-20T16:52:51.427Z,19.83
2023-01-20T16:55:20.202Z,19.67
2023-01-20T16:57:48.194Z,20.10
2023-01-20T17:00:18.920Z,20.87
2023-01-20T17:02:51.282Z,21.03
2023-01-20T17:05:22.679Z,20.90
2023-01-20T17:07:51.163Z,25.27
2023-01-20T17:10:20.320Z,47.70
2023-01-20T17:12:49.045Z,52.53
2023-01-20T17:15:17.280Z,71.67
2023-01-20T17:17:49.403Z,60.10
2023-01-20T17:20:17.916Z,51.07
2023-01-20T17:22:47.216Z,47.40
2023-01-20T17:25:17.915Z,30.43
2023-01-20T17:27:46.000Z,25.37
2023-01-20T17:30:14.869Z,23.37
2023-01-20T17:32:47.685Z,21.80
2023-01-20T17:35:15.916Z,22.87
2023-01-20T17:37:43.980Z,22.37
2023-01-20T17:40:14.938Z,23.40
2023-01-20T17:42:44.560Z,22.97
2023-01-20T17:45:13.030Z,23.37
2023-01-20T17:47:41.032Z,21.57
2023-01-20T17:50:10.044Z,21.77
2023-01-20T17:52:38.022Z,21.27
2023-01-20T17:55:06.473Z,20.67
2023-01-20T17:57:35.903Z,20.63
2023-01-20T18:00:05.425Z,19.97
2023-01-20T18:02:33.540Z,19.70
2023-01-20T18:05:01.549Z,20.40
2023-01-20T18:07:29.659Z,20.33
2023-01-20T18:09:57.639Z,19.60
2023-01-20T18:12:26.186Z,21.83
2023-01-20T18:14:55.591Z,20.43
2023-01-20T18:17:23.654Z,18.73
2023-01-20T18:19:51.778Z,19.93
2023-01-20T18:22:19.812Z,20.03
2023-01-20T18:24:47.750Z,21.90
2023-01-20T18:27:15.718Z,20.87
2023-01-20T18:29:43.856Z,21.07
2023-01-20T18:32:13.211Z,20.13
2023-01-20T18:34:41.170Z,20.77
2023-01-20T18:37:09.600Z,19.33
2023-01-20T18:39:37.537Z,20.63
2023-01-20T18:42:05.773Z,20.00
2023-01-20T18:44:33.733Z,19.80
2023-01-20T18:47:01.774Z,21.63
2023-01-20T18:49:31.126Z,19.83
2023-01-20T18:51:59.117Z,22.47
2023-01-20T18:54:30.009Z,21.40
2023-01-20T18:56:58.369Z,23.10
2023-01-20T18:59:26.659Z,22.00
2023-01-20T19:01:56.346Z,21.80
2023-01-20T19:04:24.298Z,22.07
2023-01-20T19:06:53.737Z,23.03
2023-01-20T19:09:21.692Z,23.87
2023-01-20T19:11:49.631Z,23.93
2023-01-20T19:14:17.653Z,25.30
2023-01-20T19:16:49.176Z,30.43
2023-01-20T19:19:18.983Z,26.63
2023-01-20T19:21:47.150Z,24.80
2023-01-20T19:24:19.943Z,23.47
2023-01-20T19:26:48.352Z,22.10
2023-01-20T19:29:17.464Z,22.07
2023-01-20T19:31:45.600Z,23.37
2023-01-20T19:34:14.108Z,23.17
2023-01-20T19:36:42.099Z,23.67
2023-01-20T19:39:10.165Z,24.93
2023-01-20T19:41:39.682Z,23.03
2023-01-20T19:44:07.916Z,22.93
2023-01-20T19:46:38.682Z,24.67
2023-01-20T19:49:07.522Z,24.47
2023-01-20T19:51:36.312Z,24.13
2023-01-20T19:54:05.414Z,23.00
2023-01-20T19:56:35.367Z,24.50
2023-01-20T19:59:06.347Z,23.73
2023-01-20T20:01:35.736Z,23.37
2023-01-20T20:04:06.512Z,23.70
2023-01-20T20:06:36.260Z,23.83
2023-01-20T20:09:07.534Z,23.00
2023-01-20T20:11:36.154Z,22.40
2023-01-20T20:14:06.768Z,24.83
2023-01-20T20:16:36.300Z,23.60
2023-01-20T20:19:05.383Z,22.47
2023-01-20T20:21:34.219Z,22.53
2023-01-20T20:24:03.087Z,22.07
2023-01-20T20:26:33.431Z,23.70
2023-01-20T20:29:02.855Z,23.80
2023-01-20T20:31:34.202Z,23.33
2023-01-20T20:34:03.847Z,25.90
2023-01-20T20:36:33.480Z,25.90
2023-01-20T20:39:03.150Z,26.67
2023-01-20T20:41:31.876Z,26.23
2023-01-20T20:44:01.572Z,25.37
2023-01-20T20:46:30.631Z,24.97
2023-01-20T20:49:01.922Z,23.10
2023-01-20T20:51:31.857Z,24.30
2023-01-20T20:54:00.749Z,21.90
2023-01-20T20:56:31.408Z,25.20
2023-01-20T20:59:02.524Z,23.53
2023-01-20T21:01:34.306Z,25.30
2023-01-20T21:04:04.318Z,24.50
2023-01-20T21:06:33.114Z,23.90
2023-01-20T21:09:01.405Z,23.57
2023-01-20T21:11:30.132Z,26.63
2023-01-20T21:13:58.234Z,24.90
2023-01-20T21:16:28.045Z,24.60
2023-01-20T21:18:57.313Z,26.33
2023-01-20T21:21:28.808Z,26.27
2023-01-20T21:23:58.498Z,25.63
2023-01-20T21:26:30.483Z,24.90
2023-01-20T21:29:01.610Z,24.43
2023-01-20T21:31:31.115Z,24.63
2023-01-20T21:34:00.415Z,25.63
2023-01-20T21:36:32.266Z,26.07
2023-01-20T21:39:00.720Z,25.70
2023-01-20T21:41:28.833Z,26.77
2023-01-20T21:44:14.323Z,25.40
2023-01-20T21:46:42.452Z,26.03
2023-01-20T21:49:29.949Z,26.90
2023-01-20T21:52:16.745Z,30.37
2023-01-20T21:54:45.676Z,30.07
2023-01-20T21:57:14.439Z,28.27
2023-01-20T21:59:42.896Z,24.37
2023-01-20T22:02:13.503Z,23.90
2023-01-20T22:04:41.708Z,22.97
2023-01-20T22:07:11.404Z,22.40
2023-01-20T22:09:39.909Z,21.87
2023-01-20T22:12:08.236Z,22.60
2023-01-20T22:14:36.229Z,22.27
2023-01-20T22:17:04.261Z,23.17
2023-01-20T22:19:32.499Z,22.17
2023-01-20T22:22:01.871Z,19.57
2023-01-20T22:24:31.312Z,19.03
2023-01-20T22:26:59.438Z,18.63
2023-01-20T22:29:27.660Z,18.87
2023-01-20T22:31:57.479Z,20.40
2023-01-20T22:34:25.703Z,19.77
2023-01-20T22:36:55.553Z,20.13
2023-01-20T22:39:23.571Z,20.20
2023-01-20T22:41:52.904Z,19.70
2023-01-20T22:44:20.864Z,19.93
2023-01-20T22:46:48.821Z,20.03
2023-01-20T22:49:16.803Z,19.57
2023-01-20T22:51:44.770Z,18.00
2023-01-20T22:54:12.743Z,19.43
2023-01-20T22:56:40.705Z,18.93
2023-01-20T22:59:12.914Z,18.30
2023-01-20T23:01:40.936Z,18.73
2023-01-20T23:04:09.064Z,18.00
2023-01-20T23:06:38.042Z,18.80
2023-01-20T23:09:08.875Z,18.20
2023-01-20T23:11:38.244Z,18.37
2023-01-20T23:14:06.787Z,17.90
2023-01-20T23:16:36.238Z,16.80
2023-01-20T23:19:04.231Z,17.67
2023-01-20T23:21:32.625Z,17.83
2023-01-20T23:24:00.881Z,18.33
2023-01-20T23:26:31.015Z,16.73
2023-01-20T23:28:59.200Z,17.03
2023-01-20T23:31:28.668Z,17.83
2023-01-20T23:33:58.143Z,16.83
2023-01-20T23:36:27.278Z,16.13
2023-01-20T23:38:56.591Z,16.93
2023-01-20T23:41:25.450Z,16.37
2023-01-20T23:43:53.567Z,16.17
2023-01-20T23:46:21.998Z,16.20
2023-01-20T23:48:50.039Z,16.77
2023-01-20T23:51:19.482Z,16.40
2023-01-20T23:53:47.737Z,17.00
2023-01-20T23:56:18.324Z,16.57
2023-01-20T23:58:47.112Z,17.07
